Time;durP1;ratioP1;P1;durP2;ratioP2;P2;SDS_P1;SDS_P2;PMS_P1;PMS_P2;Temp;Humidity;BMP_temperature;BMP_pressure;BME280_temperature;BME280_humidity;BME280_pressure;Samples;Min_cycle;Max_cycle;Signal;HPM_P1;HPM_P2
2022/05/10 00:00:01;;;;;;;3.35;1.20;;;13.60;99.90;;;;;;5054292;28;20475;-76
2022/05/10 00:02:27;;;;;;;4.82;1.58;;;13.20;99.90;;;;;;5054096;28;20071;-76
2022/05/10 00:04:53;;;;;;;2.25;1.30;;;13.30;99.90;;;;;;5054189;28;20032;-76
2022/05/10 00:07:21;;;;;;;5.03;1.55;;;13.20;99.90;;;;;;5054747;28;20075;-76
2022/05/10 00:09:47;;;;;;;2.25;1.00;;;13.00;99.90;;;;;;5055095;28;20025;-75
2022/05/10 00:12:12;;;;;;;2.95;1.10;;;13.00;99.90;;;;;;5054191;28;20029;-75
2022/05/10 00:14:39;;;;;;;4.95;1.30;;;12.90;99.90;;;;;;5053009;28;20070;-74
2022/05/10 00:17:05;;;;;;;2.17;1.02;;;12.90;99.90;;;;;;5054238;28;20044;-74
2022/05/10 00:19:30;;;;;;;7.13;1.25;;;12.90;99.90;;;;;;5053986;28;20032;-75
2022/05/10 00:21:57;;;;;;;5.10;1.40;;;12.90;99.90;;;;;;5052867;28;20025;-75
2022/05/10 00:24:23;;;;;;;4.03;1.23;;;12.80;99.90;;;;;;5053976;28;20025;-75
2022/05/10 00:26:49;;;;;;;2.67;1.25;;;12.80;99.90;;;;;;5054222;28;20108;-74
2022/05/10 00:29:15;;;;;;;4.82;1.40;;;13.00;99.90;;;;;;5053770;28;20099;-74
2022/05/10 00:31:42;;;;;;;4.70;1.77;;;12.70;99.90;;;;;;5053637;28;20120;-74
2022/05/10 00:34:09;;;;;;;3.65;1.50;;;12.80;99.90;;;;;;5054109;28;20024;-74
2022/05/10 00:36:35;;;;;;;5.13;1.25;;;12.70;99.90;;;;;;5054283;28;20017;-74
2022/05/10 00:39:00;;;;;;;6.70;1.33;;;12.70;99.90;;;;;;5053733;28;20071;-74
2022/05/10 00:41:53;;;;;;;3.22;1.35;;;13.30;99.90;;;;;;5054170;28;20379;-74
2022/05/10 00:44:26;;;;;;;4.43;1.88;;;12.70;99.90;;;;;;5045701;28;20044;-74
2022/05/10 00:47:02;;;;;;;5.63;2.35;;;12.60;99.90;;;;;;5053780;28;20381;-74
2022/05/10 00:49:57;;;;;;;4.97;2.15;;;12.70;99.90;;;;;;5052732;28;20120;-74
2022/05/10 00:52:43;;;;;;;7.80;3.00;;;12.70;99.90;;;;;;5052499;28;20033;-74
2022/05/10 00:55:29;;;;;;;9.27;3.05;;;13.20;99.90;;;;;;5053678;28;20017;-74
2022/05/10 00:58:08;;;;;;;6.65;2.22;;;12.70;99.90;;;;;;5053771;28;20365;-74
2022/05/10 01:00:34;;;;;;;;;;;12.70;99.90;;;;;;5053685;28;20029;-74
2022/05/10 01:03:00;;;;;;;5.32;2.50;;;12.70;99.90;;;;;;5054191;28;20374;-74
2022/05/10 01:05:36;;;;;;;4.97;2.28;;;13.20;99.90;;;;;;5053972;28;20100;-74
2022/05/10 01:08:21;;;;;;;7.28;3.25;;;12.70;99.90;;;;;;5053845;28;20021;-74
2022/05/10 01:10:53;;;;;;;5.65;2.67;;;12.70;99.90;;;;;;5053993;28;20098;-74
2022/05/10 01:13:24;;;;;;;7.00;2.70;;;12.90;99.90;;;;;;5053102;28;20463;-74
2022/05/10 01:16:04;;;;;;;5.40;2.63;;;12.70;99.90;;;;;;5053888;28;20430;-74
2022/05/10 01:18:30;;;;;;;5.45;2.58;;;12.70;99.90;;;;;;5053467;28;20025;-74
2022/05/10 01:21:03;;;;;;;10.80;3.63;;;12.70;99.90;;;;;;5051922;28;20033;-74
2022/05/10 01:23:37;;;;;;;5.18;2.35;;;12.70;99.90;;;;;;5053621;28;20071;-74
2022/05/10 01:26:02;;;;;;;7.38;3.33;;;12.60;99.90;;;;;;5053681;28;20029;-74
2022/05/10 01:28:41;;;;;;;7.55;2.75;;;12.70;99.90;;;;;;5053297;28;20438;-74
2022/05/10 01:31:14;;;;;;;10.45;3.08;;;12.70;99.90;;;;;;5053502;28;20048;-74
2022/05/10 01:33:54;;;;;;;7.38;3.50;;;12.70;99.90;;;;;;5051884;28;20162;-74
2022/05/10 01:36:38;;;;;;;8.40;3.13;;;12.70;99.90;;;;;;5053323;28;20055;-74
2022/05/10 01:39:20;;;;;;;7.93;3.85;;;12.80;99.90;;;;;;5052264;28;20043;-74
2022/05/10 01:42:04;;;;;;;8.48;3.75;;;12.80;99.90;;;;;;5053304;28;20033;-74
2022/05/10 01:44:53;;;;;;;9.07;4.40;;;12.90;99.90;;;;;;5053799;28;20045;-74
2022/05/10 01:47:40;;;;;;;10.10;3.65;;;12.90;99.90;;;;;;5053186;28;20029;-74
2022/05/10 01:50:27;;;;;;;8.23;4.35;;;12.90;99.90;;;;;;5053047;28;20029;-74
2022/05/10 01:53:02;;;;;;;7.50;3.88;;;12.90;99.90;;;;;;5051751;28;20025;-74
2022/05/10 01:55:35;;;;;;;13.93;4.05;;;13.00;99.90;;;;;;5053425;28;20427;-74
2022/05/10 01:58:11;;;;;;;8.77;4.72;;;13.00;99.90;;;;;;5053258;28;20032;-74
2022/05/10 02:00:39;;;;;;;8.57;4.53;;;13.00;99.90;;;;;;5053250;28;20064;-74
2022/05/10 02:03:13;;;;;;;12.93;5.18;;;13.00;99.90;;;;;;5053093;28;20028;-74
2022/05/10 02:06:08;;;;;;;11.93;5.32;;;13.10;99.90;;;;;;5052903;28;20110;-74
2022/05/10 02:08:59;;;;;;;15.68;6.22;;;13.20;99.90;;;;;;5052784;28;20040;-74
2022/05/10 02:11:25;;;;;;;11.75;5.43;;;13.20;99.90;;;;;;5052862;28;20032;-74
2022/05/10 02:14:09;;;;;;;13.20;6.32;;;13.20;99.90;;;;;;5051386;28;20009;-74
2022/05/10 02:16:54;;;;;;;12.02;5.60;;;13.20;99.90;;;;;;5052862;28;20024;-74
2022/05/10 02:19:35;;;;;;;18.52;7.38;;;13.30;99.90;;;;;;5053196;28;20392;-74
2022/05/10 02:22:08;;;;;;;13.27;6.22;;;13.40;99.90;;;;;;5053117;28;20071;-74
2022/05/10 02:24:43;;;;;;;17.08;5.88;;;13.40;99.90;;;;;;5052850;28;20033;-74
2022/05/10 02:27:13;;;;;;;14.98;7.10;;;13.40;99.90;;;;;;5056409;28;20131;-74
2022/05/10 02:29:45;;;;;;;13.85;6.50;;;13.50;99.90;;;;;;5056471;28;20025;-75
2022/05/10 02:35:08;;;;;;;14.30;7.25;;;13.60;99.90;;;;;;5056372;28;20074;-74
2022/05/10 02:37:34;;;;;;;16.75;7.45;;;13.60;99.90;;;;;;5056228;28;20054;-74
2022/05/10 02:40:01;;;;;;;13.48;6.45;;;13.70;99.90;;;;;;5056221;28;20029;-74
2022/05/10 02:42:28;;;;;;;15.00;7.45;;;13.70;99.90;;;;;;5056361;28;20126;-75
2022/05/10 02:44:55;;;;;;;14.82;6.45;;;13.70;99.90;;;;;;5054541;28;20094;-75
2022/05/10 02:47:39;;;;;;;15.70;6.90;;;13.70;99.90;;;;;;5055659;28;20437;-75
2022/05/10 02:50:30;;;;;;;12.57;6.07;;;13.80;99.90;;;;;;5056118;28;20029;-75
2022/05/10 02:52:56;;;;;;;14.25;6.80;;;13.80;99.90;;;;;;5055545;28;20051;-75
2022/05/10 02:55:24;;;;;;;13.82;5.95;;;13.80;99.90;;;;;;5055582;28;20032;-76
2022/05/10 02:57:52;;;;;;;16.65;6.70;;;13.80;99.90;;;;;;5055593;28;20017;-75
2022/05/10 03:00:19;;;;;;;16.10;6.87;;;13.90;99.90;;;;;;5055705;28;20029;-75
2022/05/10 03:02:50;;;;;;;15.85;7.10;;;13.90;99.90;;;;;;5054206;28;20025;-75
2022/05/10 03:05:16;;;;;;;15.75;7.05;;;13.90;99.90;;;;;;5056274;28;20464;-77
2022/05/10 03:07:44;;;;;;;13.55;6.57;;;13.90;99.90;;;;;;5055553;28;20078;-77
2022/05/10 03:10:10;;;;;;;12.98;6.68;;;13.80;99.90;;;;;;5055383;28;20021;-76
2022/05/10 03:12:36;;;;;;;24.42;7.53;;;13.80;99.90;;;;;;5055738;28;20410;-75
2022/05/10 03:15:03;;;;;;;17.40;6.50;;;13.80;99.90;;;;;;5055993;28;20056;-76
2022/05/10 03:17:29;;;;;;;19.13;8.10;;;13.80;99.90;;;;;;5055184;28;20050;-75
2022/05/10 03:19:54;;;;;;;16.70;7.30;;;13.80;99.90;;;;;;5055219;28;20075;-76
2022/05/10 03:22:20;;;;;;;18.45;8.10;;;13.90;99.90;;;;;;5055239;28;20021;-76
2022/05/10 03:24:46;;;;;;;14.93;6.47;;;14.10;99.90;;;;;;5055177;28;20426;-76
2022/05/10 03:27:12;;;;;;;13.82;6.63;;;13.80;99.90;;;;;;5055065;28;20029;-75
2022/05/10 03:29:39;;;;;;;14.02;6.93;;;13.90;99.90;;;;;;5054911;28;20040;-75
2022/05/10 03:32:06;;;;;;;16.88;7.55;;;13.90;99.90;;;;;;5055105;28;20036;-76
2022/05/10 03:37:16;;;;;;;19.58;6.93;;;14.00;99.90;;;;;;5055266;28;20064;-75
2022/05/10 03:39:41;;;;;;;15.77;7.32;;;14.00;99.90;;;;;;5055194;28;20487;-76
2022/05/10 03:42:09;;;;;;;18.20;7.88;;;14.00;99.90;;;;;;5053479;28;20471;-76
2022/05/10 03:44:35;;;;;;;17.67;7.32;;;14.00;99.90;;;;;;5054672;28;20036;-76
2022/05/10 03:47:01;;;;;;;19.65;8.30;;;14.00;99.90;;;;;;5053688;28;20017;-76
2022/05/10 03:49:27;;;;;;;15.15;7.72;;;14.00;99.90;;;;;;5053510;28;20479;-76
2022/05/10 03:51:55;;;;;;;18.80;7.93;;;14.00;99.90;;;;;;5054669;28;20417;-76
2022/05/10 03:54:24;;;;;;;44.75;8.82;;;14.10;99.90;;;;;;5054888;28;20395;-76
2022/05/10 03:56:50;;;;;;;;;;;14.10;99.90;;;;;;5055379;28;20041;-76
2022/05/10 03:59:17;;;;;;;15.70;7.60;;;14.10;99.90;;;;;;5053261;28;19905;-76
2022/05/10 04:01:43;;;;;;;19.70;8.15;;;14.00;99.90;;;;;;5055524;28;20029;-76
2022/05/10 04:04:08;;;;;;;18.83;8.75;;;14.10;99.90;;;;;;5053375;28;20051;-76
2022/05/10 04:06:34;;;;;;;21.92;8.23;;;14.00;99.90;;;;;;5054469;28;20079;-76
2022/05/10 04:08:59;;;;;;;19.50;7.93;;;14.00;99.90;;;;;;5054494;28;20112;-76
2022/05/10 04:11:25;;;;;;;25.55;8.52;;;14.00;99.90;;;;;;5054905;28;20043;-76
2022/05/10 04:13:50;;;;;;;18.92;8.38;;;13.90;99.90;;;;;;5052936;28;20025;-76
2022/05/10 04:16:16;;;;;;;17.15;7.78;;;13.90;99.90;;;;;;5054094;28;20033;-76
2022/05/10 04:18:42;;;;;;;17.63;7.55;;;13.90;99.90;;;;;;5054698;28;20021;-76
2022/05/10 04:21:08;;;;;;;21.48;8.93;;;13.90;99.90;;;;;;5052847;28;20017;-76
2022/05/10 04:23:34;;;;;;;17.63;7.72;;;13.90;99.90;;;;;;5052788;28;20162;-75
2022/05/10 04:26:08;;;;;;;19.10;8.05;;;14.10;99.90;;;;;;5052980;28;20162;-75
2022/05/10 04:28:35;;;;;;;20.20;8.65;;;13.90;99.90;;;;;;5054193;28;20395;-75
2022/05/10 04:31:01;;;;;;;15.75;7.63;;;13.90;99.90;;;;;;5054298;28;20063;-75
2022/05/10 04:33:28;;;;;;;16.67;8.05;;;13.90;99.90;;;;;;5052790;28;20033;-75
2022/05/10 04:35:53;;;;;;;19.90;6.60;;;14.00;99.90;;;;;;5054867;28;20032;-76
2022/05/10 04:38:19;;;;;;;16.48;7.90;;;14.00;99.90;;;;;;5054387;28;20403;-75
2022/05/10 04:43:31;;;;;;;22.05;8.43;;;14.40;99.90;;;;;;5055640;28;20399;-76
2022/05/10 04:45:57;;;;;;;15.15;6.90;;;14.20;99.90;;;;;;5055856;28;20087;-76
2022/05/10 04:48:22;;;;;;;19.10;7.32;;;14.20;99.90;;;;;;5054084;28;20029;-75
2022/05/10 04:50:48;;;;;;;20.40;8.00;;;14.20;99.90;;;;;;5052874;28;20067;-76
2022/05/10 04:53:15;;;;;;;16.67;7.65;;;14.30;99.90;;;;;;5054845;28;20375;-75
2022/05/10 04:55:40;;;;;;;17.27;7.78;;;14.40;99.90;;;;;;5053184;28;20035;-76
2022/05/10 04:58:06;;;;;;;16.98;8.10;;;14.40;99.90;;;;;;5054190;28;20111;-74
2022/05/10 05:00:32;;;;;;;14.27;7.38;;;14.50;99.90;;;;;;5054656;28;20029;-75
2022/05/10 05:02:58;;;;;;;15.52;7.68;;;14.50;99.90;;;;;;5053383;28;20391;-75
2022/05/10 05:05:24;;;;;;;16.65;7.35;;;14.60;99.90;;;;;;5054240;28;20033;-75
2022/05/10 05:07:49;;;;;;;17.42;7.75;;;14.60;99.90;;;;;;5053908;28;20496;-76
2022/05/10 05:10:15;;;;;;;15.90;7.43;;;14.70;99.90;;;;;;5054458;28;20028;-76
2022/05/10 05:12:40;;;;;;;16.02;8.38;;;14.70;99.90;;;;;;5053760;28;20025;-76
2022/05/10 05:15:10;;;;;;;15.88;7.25;;;15.30;99.90;;;;;;5052439;28;20016;-76
2022/05/10 05:17:35;;;;;;;18.13;7.78;;;14.80;99.90;;;;;;5053708;28;20032;-75
2022/05/10 05:20:01;;;;;;;17.63;7.70;;;14.90;99.90;;;;;;5052445;28;20017;-75
2022/05/10 05:22:27;;;;;;;24.00;8.48;;;14.90;99.90;;;;;;5053256;28;20422;-75
2022/05/10 05:24:55;;;;;;;17.50;6.43;;;15.00;99.90;;;;;;5053614;28;20048;-75
2022/05/10 05:27:21;;;;;;;18.77;8.35;;;15.10;99.90;;;;;;5052087;28;20391;-75
2022/05/10 05:29:47;;;;;;;18.40;7.22;;;15.30;99.90;;;;;;5053223;28;20059;-75
2022/05/10 05:32:15;;;;;;;18.23;6.82;;;15.40;99.90;;;;;;5051978;28;20041;-75
2022/05/10 05:34:40;;;;;;;19.60;7.37;;;15.50;99.90;;;;;;5052382;28;20032;-75
2022/05/10 05:39:50;;;;;;;18.35;7.07;;;15.80;99.90;;;;;;5053794;28;20079;-76
2022/05/10 05:42:17;;;;;;;17.23;6.75;;;16.00;99.90;;;;;;5053193;28;20471;-75
2022/05/10 05:44:43;;;;;;;17.40;7.50;;;16.10;99.90;;;;;;5053486;28;20021;-76
2022/05/10 05:47:08;;;;;;;15.45;6.40;;;16.20;99.90;;;;;;5052165;28;20024;-76
2022/05/10 05:49:34;;;;;;;18.45;6.68;;;16.30;99.90;;;;;;5052032;28;20018;-76
2022/05/10 05:52:02;;;;;;;21.25;7.38;;;16.50;99.90;;;;;;5053741;28;20388;-77
2022/05/10 05:54:28;;;;;;;15.77;6.50;;;16.60;99.90;;;;;;5053416;28;20040;-77
2022/05/10 05:57:06;;;;;;;15.82;6.85;;;16.70;99.90;;;;;;5055175;28;20057;-77
2022/05/10 05:59:32;;;;;;;16.23;7.45;;;16.70;99.90;;;;;;5054670;28;20376;-78
2022/05/10 06:01:58;;;;;;;12.43;6.82;;;16.60;99.90;;;;;;5056873;28;20107;-77
2022/05/10 06:04:24;;;;;;;11.73;6.75;;;16.60;99.90;;;;;;5058432;28;20553;-77
2022/05/10 06:06:50;;;;;;;17.70;6.22;;;16.70;99.90;;;;;;5057004;28;20025;-77
2022/05/10 06:09:19;;;;;;;14.80;6.25;;;16.70;99.90;;;;;;5056520;28;20029;-76
2022/05/10 06:11:45;;;;;;;12.38;7.20;;;16.80;99.90;;;;;;5056870;28;20035;-76
2022/05/10 06:14:11;;;;;;;19.23;7.13;;;16.80;99.90;;;;;;5056995;28;20017;-76
2022/05/10 06:16:40;;;;;;;12.45;6.10;;;16.90;99.90;;;;;;5057443;28;20017;-76
2022/05/10 06:19:05;;;;;;;13.52;6.07;;;17.00;99.90;;;;;;5056654;28;20017;-76
2022/05/10 06:21:32;;;;;;;14.65;6.65;;;17.20;99.90;;;;;;5056853;28;20021;-76
2022/05/10 06:23:58;;;;;;;17.23;7.13;;;17.40;99.90;;;;;;5056695;28;20040;-78
2022/05/10 06:26:23;;;;;;;14.18;6.70;;;17.50;99.90;;;;;;5058528;28;20429;-77
2022/05/10 06:28:49;;;;;;;18.25;6.60;;;17.70;99.90;;;;;;5055742;28;20495;-76
2022/05/10 06:31:14;;;;;;;14.98;5.65;;;17.80;99.90;;;;;;5056182;28;20033;-76
2022/05/10 06:33:40;;;;;;;14.02;7.10;;;17.90;99.90;;;;;;5056928;28;20052;-76
2022/05/10 06:36:05;;;;;;;13.55;5.47;;;18.00;99.90;;;;;;5057214;28;20047;-79
2022/05/10 06:38:31;;;;;;;14.65;6.15;;;18.00;99.90;;;;;;5057723;28;20071;-77
2022/05/10 06:41:06;;;;;;;16.23;6.22;;;18.00;99.90;;;;;;5058132;28;20547;-76
2022/05/10 06:43:35;;;;;;;13.75;6.00;;;18.00;99.90;;;;;;5057663;28;20052;-77
2022/05/10 06:46:12;;;;;;;14.93;5.13;;;18.00;99.90;;;;;;5057703;28;20075;-77
2022/05/10 06:48:37;;;;;;;11.30;4.90;;;18.10;99.90;;;;;;5058946;28;20021;-79
2022/05/10 06:51:07;;;;;;;15.10;6.50;;;18.20;99.90;;;;;;5060930;28;20029;-78
2022/05/10 06:53:33;;;;;;;14.73;5.28;;;18.30;99.90;;;;;;5060845;28;20032;-79
2022/05/10 06:55:59;;;;;;;14.02;4.28;;;18.40;99.90;;;;;;5057884;28;20021;-78
2022/05/10 06:58:25;;;;;;;9.93;4.82;;;19.30;99.90;;;;;;5057791;28;20486;-77
2022/05/10 07:00:52;;;;;;;14.27;5.85;;;18.50;99.90;;;;;;5057129;28;20036;-75
2022/05/10 07:03:26;;;;;;;10.23;4.20;;;18.80;99.90;;;;;;5068066;28;20360;-75
2022/05/10 07:05:52;;;;;;;9.50;3.85;;;18.90;99.90;;;;;;5067074;28;20031;-75
2022/05/10 07:08:18;;;;;;;8.88;4.20;;;19.10;99.90;;;;;;5066369;28;20029;-75
2022/05/10 07:10:44;;;;;;;13.07;4.72;;;19.20;99.90;;;;;;5064617;28;20498;-75
2022/05/10 07:13:15;;;;;;;10.02;4.28;;;19.30;99.90;;;;;;5065491;28;20036;-75
2022/05/10 07:15:40;;;;;;;8.52;3.45;;;19.50;99.90;;;;;;5064604;28;20024;-75
2022/05/10 07:18:06;;;;;;;11.60;4.57;;;19.50;99.90;;;;;;5063131;28;20382;-75
2022/05/10 07:20:32;;;;;;;12.30;4.35;;;19.50;99.90;;;;;;5066472;28;20538;-75
2022/05/10 07:23:00;;;;;;;8.23;3.40;;;19.60;99.90;;;;;;5064178;28;20104;-75
2022/05/10 07:25:28;;;;;;;7.90;3.25;;;19.60;99.20;;;;;;5065284;28;20034;-75
2022/05/10 07:27:54;;;;;;;8.93;4.78;;;19.70;99.80;;;;;;5066558;28;20532;-76
2022/05/10 07:30:24;;;;;;;8.20;3.67;;;19.80;98.60;;;;;;5065274;28;20391;-75
2022/05/10 07:32:50;;;;;;;7.20;3.65;;;19.90;98.90;;;;;;5072642;23;20052;-74
2022/05/10 07:36:23;;;;;;;11.35;4.13;;;19.90;97.70;;;;;;5035659;28;20021;-74
2022/05/10 07:38:04;;;;;;;9.00;3.78;;;20.00;97.40;;;;;;5036853;28;20396;-74
2022/05/10 07:40:30;;;;;;;10.02;3.90;;;20.10;96.80;;;;;;5037022;28;20051;-74
2022/05/10 07:42:55;;;;;;;6.15;3.17;;;20.20;96.10;;;;;;5023092;28;20026;-74
2022/05/10 07:45:21;;;;;;;12.40;3.63;;;20.20;96.30;;;;;;5016598;28;20030;-75
2022/05/10 07:47:46;;;;;;;8.73;3.33;;;20.20;96.00;;;;;;5016437;28;20037;-75
2022/05/10 07:50:12;;;;;;;5.97;3.05;;;20.30;97.00;;;;;;5016478;28;20465;-75
2022/05/10 07:52:40;;;;;;;7.20;3.55;;;20.30;96.10;;;;;;5016326;28;20060;-75
2022/05/10 07:55:07;;;;;;;7.90;3.30;;;20.30;95.90;;;;;;5014829;28;20086;-76
2022/05/10 07:57:33;;;;;;;6.80;3.40;;;20.30;96.50;;;;;;5015869;28;20029;-75
2022/05/10 07:59:59;;;;;;;9.38;2.60;;;20.40;95.80;;;;;;5015918;28;20357;-75
2022/05/10 08:02:24;;;;;;;7.75;2.90;;;20.50;95.80;;;;;;5016106;28;20088;-75
2022/05/10 08:04:52;;;;;;;9.18;3.50;;;20.60;94.70;;;;;;5015810;28;20018;-77
2022/05/10 08:07:18;;;;;;;8.00;3.40;;;21.70;96.10;;;;;;5014661;28;20022;-76
2022/05/10 08:09:43;;;;;;;8.68;3.35;;;20.60;95.10;;;;;;5016334;28;20018;-79
2022/05/10 08:12:09;;;;;;;7.35;3.17;;;20.60;95.10;;;;;;5015689;28;20030;-77
2022/05/10 08:14:36;;;;;;;9.20;3.70;;;20.70;96.00;;;;;;5016309;28;20011;-77
2022/05/10 08:17:02;;;;;;;7.47;2.83;;;20.80;95.50;;;;;;5014855;28;20488;-74
2022/05/10 08:19:28;;;;;;;5.93;3.08;;;21.00;95.10;;;;;;5015613;28;20100;-74
2022/05/10 08:21:56;;;;;;;8.38;3.30;;;21.40;94.60;;;;;;5015576;28;20033;-75
2022/05/10 08:24:22;;;;;;;11.48;2.95;;;21.60;93.60;;;;;;5015675;28;20028;-75
2022/05/10 08:26:48;;;;;;;6.63;3.20;;;21.80;92.60;;;;;;5014609;28;20034;-76
2022/05/10 08:29:14;;;;;;;9.75;3.20;;;21.90;91.00;;;;;;5014468;28;20022;-77
2022/05/10 08:31:40;;;;;;;4.22;2.47;;;22.10;90.30;;;;;;5014818;28;20116;-76
2022/05/10 08:34:06;;;;;;;8.35;3.15;;;22.20;88.30;;;;;;5013259;28;20058;-77
2022/05/10 08:36:32;;;;;;;3.95;2.10;;;22.30;87.50;;;;;;5014786;28;20059;-75
2022/05/10 08:38:58;;;;;;;6.25;2.60;;;22.30;87.40;;;;;;5014919;28;20104;-76
2022/05/10 08:41:32;;;;;;;7.35;2.30;;;22.30;86.10;;;;;;5015729;28;20060;-78
2022/05/10 08:44:12;;;;;;;10.40;2.97;;;22.30;86.40;;;;;;5015114;28;20025;-75
2022/05/10 08:46:41;;;;;;;7.90;2.78;;;22.50;84.80;;;;;;5014955;28;20036;-75
2022/05/10 08:49:18;;;;;;;9.30;3.13;;;22.60;81.30;;;;;;5015014;28;20488;-75
2022/05/10 08:51:43;;;;;;;6.28;2.65;;;22.70;82.40;;;;;;5014741;28;20030;-75
2022/05/10 08:54:09;;;;;;;6.30;2.67;;;22.80;80.60;;;;;;5014761;28;20381;-75
2022/05/10 08:56:44;;;;;;;9.30;2.67;;;23.10;79.30;;;;;;5015236;28;20026;-75
2022/05/10 08:59:23;;;;;;;8.82;2.13;;;23.20;78.50;;;;;;5015392;28;20530;-76
2022/05/10 09:01:57;;;;;;;6.03;2.28;;;23.40;78.40;;;;;;5014225;28;20034;-76
2022/05/10 09:04:43;;;;;;;3.88;2.03;;;23.40;75.10;;;;;;4997913;28;20472;-75
2022/05/10 09:07:27;;;;;;;3.72;1.27;;;23.40;74.10;;;;;;5014282;28;20496;-75
2022/05/10 09:10:01;;;;;;;5.13;2.10;;;23.60;76.10;;;;;;5015460;28;20021;-75
2022/05/10 09:12:30;;;;;;;4.88;1.52;;;23.70;73.70;;;;;;5014578;28;20544;-75
2022/05/10 09:15:06;;;;;;;4.93;1.90;;;23.80;74.00;;;;;;5015280;28;20093;-75
2022/05/10 09:17:36;;;;;;;6.57;1.75;;;23.80;72.60;;;;;;5015334;28;20022;-75
2022/05/10 09:20:08;;;;;;;2.72;1.40;;;23.80;76.00;;;;;;5015386;28;20111;-75
2022/05/10 09:22:39;;;;;;;17.95;2.15;;;23.70;73.70;;;;;;5015532;28;20429;-75
2022/05/10 09:25:35;;;;;;;12.10;2.20;;;23.70;72.50;;;;;;5014187;28;20022;-75
2022/05/10 09:28:22;;;;;;;6.80;1.45;;;23.70;72.10;;;;;;5001699;28;20038;-75
2022/05/10 09:36:33;;;;;;;5.38;1.27;;;23.80;70.50;;;;;;5014038;28;20029;-75
2022/05/10 09:39:15;;;;;;;3.90;1.70;;;23.80;70.00;;;;;;5017415;28;20025;-75
2022/05/10 09:41:46;;;;;;;6.88;1.45;;;23.70;69.30;;;;;;5018682;28;20041;-75
2022/05/10 09:44:24;;;;;;;4.90;1.33;;;23.50;71.00;;;;;;5017214;28;20032;-75
2022/05/10 09:46:54;;;;;;;11.63;1.95;;;23.30;72.70;;;;;;5018685;28;20033;-75
2022/05/10 09:49:34;;;;;;;4.63;1.63;;;23.30;71.50;;;;;;5017342;28;20028;-75
2022/05/10 09:52:00;;;;;;;7.93;2.10;;;23.40;72.60;;;;;;5018687;28;20391;-75
2022/05/10 09:54:41;;;;;;;3.92;1.50;;;23.50;71.30;;;;;;5018680;28;20018;-75
2022/05/10 09:57:10;;;;;;;5.22;2.05;;;23.50;71.70;;;;;;5017632;28;20026;-74
2022/05/10 09:59:47;;;;;;;6.07;2.25;;;23.50;72.10;;;;;;5018829;28;20029;-75
2022/05/10 10:02:26;;;;;;;4.40;1.70;;;23.30;71.80;;;;;;5018557;28;20029;-74
2022/05/10 10:04:51;;;;;;;5.50;1.95;;;23.20;73.50;;;;;;5018896;28;20473;-74
2022/05/10 10:07:17;;;;;;;5.32;1.75;;;23.20;72.80;;;;;;5018441;28;20026;-74
2022/05/10 10:09:51;;;;;;;6.05;1.65;;;23.20;73.40;;;;;;5018687;28;20097;-74
2022/05/10 10:12:40;;;;;;;4.63;1.08;;;23.40;73.80;;;;;;5018520;28;20026;-74
2022/05/10 10:15:22;;;;;;;;;;;23.40;72.60;;;;;;5018438;28;20018;-74
2022/05/10 10:18:10;;;;;;;4.22;0.90;;;23.60;70.20;;;;;;5018002;28;19909;-74
2022/05/10 10:20:53;;;;;;;;;;;23.80;69.90;;;;;;5018652;28;20029;-73
2022/05/10 10:23:22;;;;;;;3.25;0.40;;;24.10;69.80;;;;;;5017825;28;19951;-74
2022/05/10 10:25:51;;;;;;;3.08;1.20;;;24.30;71.20;;;;;;5016445;28;20547;-74
2022/05/10 10:28:31;;;;;;;5.03;0.70;;;24.70;68.40;;;;;;5017652;28;20029;-74
2022/05/10 10:31:04;;;;;;;3.47;0.70;;;25.00;66.30;;;;;;5017507;28;20033;-74
2022/05/10 10:33:44;;;;;;;7.47;0.80;;;25.30;65.60;;;;;;5017425;28;20034;-74
2022/05/10 10:36:18;;;;;;;5.10;0.70;;;25.60;63.40;;;;;;5017075;28;20418;-74
2022/05/10 10:38:52;;;;;;;1.20;0.55;;;25.50;61.60;;;;;;5015562;28;20022;-76
2022/05/10 10:41:43;;;;;;;1.63;0.15;;;25.40;61.30;;;;;;5017315;28;20041;-76
2022/05/10 10:44:27;;;;;;;5.15;0.60;;;25.20;60.40;;;;;;5016357;28;20030;-76
2022/05/10 10:47:09;;;;;;;1.52;0.50;;;24.90;63.50;;;;;;5015978;28;20030;-76
2022/05/10 10:49:58;;;;;;;3.72;0.25;;;24.80;62.40;;;;;;5015209;28;20025;-75
2022/05/10 10:52:27;;;;;;;4.15;1.15;;;24.90;65.00;;;;;;5010149;28;20061;-75
2022/05/10 10:54:52;;;;;;;2.75;0.88;;;24.60;62.60;;;;;;5016624;28;20104;-76
2022/05/10 10:58:02;;;;;;;2.97;1.10;;;24.70;62.80;;;;;;5016771;28;20492;-76
2022/05/10 11:00:54;;;;;;;1.38;0.40;;;24.40;62.50;;;;;;4997107;28;20038;-76
2022/05/10 11:03:33;;;;;;;14.70;1.48;;;24.70;61.10;;;;;;4997584;28;20535;-76
2022/05/10 11:06:21;;;;;;;4.78;0.80;;;24.80;63.10;;;;;;5017012;28;20026;-76
2022/05/10 11:09:20;;;;;;;4.15;0.90;;;24.80;62.20;;;;;;5016851;28;20108;-76
2022/05/10 11:12:16;;;;;;;10.70;1.00;;;25.40;62.30;;;;;;4993899;28;20049;-76
2022/05/10 11:15:07;;;;;;;4.28;0.68;;;25.60;58.70;;;;;;5015104;28;20060;-76
2022/05/10 11:17:59;;;;;;;3.60;1.33;;;25.40;59.20;;;;;;5016171;28;20032;-75
2022/05/10 11:20:47;;;;;;;0.98;0.75;;;25.30;58.40;;;;;;5016698;28;20030;-75
2022/05/10 11:23:48;;;;;;;2.05;0.73;;;25.20;60.00;;;;;;5016086;28;20392;-75
2022/05/10 11:26:33;;;;;;;3.35;0.60;;;25.40;61.40;;;;;;5001267;28;20093;-76
2022/05/10 11:29:30;;;;;;;4.60;1.05;;;25.50;59.90;;;;;;5017523;28;20030;-77
2022/05/10 11:32:44;;;;;;;2.55;0.70;;;25.20;58.30;;;;;;5015846;28;20025;-75
2022/05/10 11:35:19;;;;;;;2.22;1.02;;;25.10;61.90;;;;;;4974767;28;20031;-75
2022/05/10 11:38:23;;;;;;;7.85;1.67;;;25.10;59.40;;;;;;4974786;28;20031;-75
2022/05/10 11:40:54;;;;;;;1.42;0.22;;;24.80;57.80;;;;;;5007367;28;20092;-76
2022/05/10 11:43:43;;;;;;;2.70;0.30;;;24.70;58.50;;;;;;5016374;28;20025;-76
2022/05/10 11:46:33;;;;;;;6.38;0.25;;;24.70;57.40;;;;;;5016277;28;20022;-76
2022/05/10 11:49:19;;;;;;;5.45;0.95;;;24.60;58.20;;;;;;5016323;28;20477;-77
2022/05/10 11:51:51;;;;;;;4.15;0.70;;;24.40;58.40;;;;;;5015429;28;20026;-76
2022/05/10 11:54:42;;;;;;;3.78;0.82;;;24.40;59.70;;;;;;5016899;28;20049;-76
2022/05/10 11:57:14;;;;;;;1.90;0.68;;;24.50;59.00;;;;;;5014696;28;20030;-76
2022/05/10 11:59:41;;;;;;;2.65;0.60;;;24.60;61.50;;;;;;5017101;28;20042;-78
2022/05/10 12:02:29;;;;;;;3.55;1.13;;;25.00;60.00;;;;;;5017335;28;20022;-76
2022/05/10 12:05:10;;;;;;;3.42;1.35;;;25.40;57.90;;;;;;5016583;28;20026;-77
2022/05/10 12:07:43;;;;;;;2.40;0.38;;;25.60;57.90;;;;;;5016308;28;20034;-76
2022/05/10 12:10:33;;;;;;;4.85;0.85;;;25.80;60.80;;;;;;5014822;28;20054;-76
2022/05/10 12:13:06;;;;;;;5.07;0.77;;;26.20;58.50;;;;;;5014886;28;20477;-76
2022/05/10 12:21:31;;;;;;;4.35;0.98;;;26.10;55.30;;;;;;5016574;28;20060;-76
2022/05/10 12:24:26;;;;;;;6.72;1.25;;;25.90;57.60;;;;;;5016150;28;20030;-76
2022/05/10 12:27:16;;;;;;;11.05;2.47;;;25.80;58.00;;;;;;5016784;28;20029;-77
2022/05/10 12:29:41;;;;;;;5.30;1.85;;;25.90;58.10;;;;;;5010219;28;20064;-78
2022/05/10 12:32:27;;;;;;;4.15;1.30;;;25.60;57.80;;;;;;5017688;28;20049;-78
2022/05/10 12:35:04;;;;;;;2.15;1.35;;;25.70;58.80;;;;;;5016670;28;20025;-77
2022/05/10 12:37:32;;;;;;;4.97;1.58;;;25.30;60.00;;;;;;5017004;28;20025;-77
2022/05/10 12:40:10;;;;;;;2.40;1.50;;;25.40;59.30;;;;;;5016933;28;20022;-77
2022/05/10 12:42:51;;;;;;;8.60;2.60;;;25.40;61.40;;;;;;5016673;28;20167;-77
2022/05/10 12:45:42;;;;;;;9.23;1.40;;;25.20;60.70;;;;;;5016138;28;20030;-77
2022/05/10 12:48:39;;;;;;;4.00;1.58;;;25.30;61.40;;;;;;5015811;28;20389;-77
2022/05/10 12:51:43;;;;;;;5.78;1.60;;;25.40;62.50;;;;;;5017014;28;20057;-77
2022/05/10 12:54:14;;;;;;;11.20;2.72;;;25.50;61.70;;;;;;5017166;28;20010;-77
2022/05/10 12:56:42;;;;;;;6.57;1.48;;;25.30;58.70;;;;;;5016627;28;20057;-77
2022/05/10 12:59:15;;;;;;;;;;;24.70;59.40;;;;;;5015593;28;20439;-77
2022/05/10 13:01:41;;;;;;;3.30;1.75;;;24.70;59.70;;;;;;5015327;28;19971;-77
2022/05/10 13:04:21;;;;;;;4.88;0.47;;;24.50;61.10;;;;;;5016939;28;20047;-77
2022/05/10 13:06:58;;;;;;;2.67;0.30;;;24.70;62.80;;;;;;5017125;28;20405;-77
2022/05/10 13:09:40;;;;;;;3.75;0.47;;;24.80;60.40;;;;;;5016938;28;20025;-77
2022/05/10 13:12:18;;;;;;;7.88;0.43;;;24.80;58.80;;;;;;5015684;28;20022;-77
2022/05/10 13:15:11;;;;;;;2.65;0.32;;;24.70;60.70;;;;;;5017041;28;20022;-77
2022/05/10 13:17:41;;;;;;;4.07;0.60;;;24.60;60.00;;;;;;5016873;28;20049;-77
2022/05/10 13:20:12;;;;;;;5.07;0.47;;;24.50;60.40;;;;;;5016897;28;20022;-77
2022/05/10 13:22:46;;;;;;;3.42;0.47;;;24.30;60.70;;;;;;5016668;28;20101;-77
2022/05/10 13:25:12;;;;;;;0.60;0.15;;;24.30;59.00;;;;;;5017008;28;20018;-77
2022/05/10 13:27:41;;;;;;;3.03;0.30;;;24.10;57.10;;;;;;5016496;28;20076;-77
2022/05/10 13:30:16;;;;;;;;;;;24.00;60.40;;;;;;5017088;28;20033;-77
2022/05/10 13:32:45;;;;;;;2.53;0.10;;;24.10;58.60;;;;;;5015120;28;19913;-77